createdAt,value
2017-04-23T00:00:37.993Z,0
2017-04-23T00:01:46.932Z,0
2017-04-23T00:02:55.878Z,0
2017-04-23T00:04:04.911Z,0
2017-04-23T00:05:13.860Z,0
2017-04-23T00:06:23.102Z,0
2017-04-23T00:07:32.062Z,0
2017-04-23T00:08:41.007Z,0
2017-04-23T00:09:49.953Z,0
2017-04-23T00:10:58.901Z,0
2017-04-23T00:12:08.148Z,0
2017-04-23T00:13:17.093Z,0
2017-04-23T00:14:26.124Z,0
2017-04-23T00:15:35.071Z,0
2017-04-23T00:16:44.345Z,0
2017-04-23T00:17:53.595Z,0
2017-04-23T00:19:02.554Z,0
2017-04-23T00:20:11.497Z,0
2017-04-23T00:21:20.539Z,0
2017-04-23T00:22:29.482Z,0
2017-04-23T00:23:38.729Z,0
2017-04-23T00:24:47.674Z,0
2017-04-23T00:25:56.620Z,0
2017-04-23T00:27:05.567Z,0
2017-04-23T00:28:14.523Z,0
2017-04-23T00:29:23.768Z,0
2017-04-23T00:30:33.357Z,0
2017-04-23T00:31:42.304Z,0
2017-04-23T00:32:51.346Z,0
2017-04-23T00:34:00.302Z,0
2017-04-23T00:35:09.501Z,0
2017-04-23T00:36:18.459Z,0
2017-04-23T00:37:27.489Z,0
2017-04-23T00:38:36.433Z,0
2017-04-23T00:39:45.377Z,0
2017-04-23T00:40:54.569Z,0
2017-04-23T00:42:03.517Z,0
2017-04-23T00:43:12.458Z,0
2017-04-23T00:44:21.407Z,0
2017-04-23T00:45:30.356Z,0
2017-04-23T00:46:39.551Z,0
2017-04-23T00:47:48.500Z,0
2017-04-23T00:48:57.448Z,0
2017-04-23T00:50:06.399Z,0
2017-04-23T00:51:15.673Z,0
2017-04-23T00:52:24.916Z,0
2017-04-23T00:53:33.859Z,0
2017-04-23T00:54:42.809Z,0
2017-04-23T00:55:51.750Z,0
2017-04-23T00:57:00.698Z,0
2017-04-23T00:58:10.033Z,0
2017-04-23T00:59:18.979Z,0
2017-04-23T01:00:27.925Z,0
2017-04-23T01:01:36.870Z,0
2017-04-23T01:02:46.154Z,0
2017-04-23T01:03:55.353Z,0
2017-04-23T01:05:04.298Z,0
2017-04-23T01:06:13.247Z,0
2017-04-23T01:07:22.520Z,0
2017-04-23T01:08:31.799Z,0
2017-04-23T01:09:41.000Z,0
2017-04-23T01:10:49.946Z,0
2017-04-23T01:11:58.893Z,0
2017-04-23T01:13:07.839Z,0
2017-04-23T01:14:16.800Z,0
2017-04-23T01:15:26.002Z,0
2017-04-23T01:16:35.036Z,0
2017-04-23T01:17:43.981Z,0
2017-04-23T01:18:53.111Z,0
2017-04-23T01:20:02.056Z,0
2017-04-23T01:21:11.305Z,0
2017-04-23T01:22:20.249Z,0
2017-04-23T01:23:29.522Z,0
2017-04-23T01:24:38.470Z,0
2017-04-23T01:25:47.417Z,0
2017-04-23T01:26:56.613Z,0
2017-04-23T01:28:05.562Z,0
2017-04-23T01:29:14.502Z,0
2017-04-23T01:30:23.448Z,0
2017-04-23T01:31:32.479Z,0
2017-04-23T01:32:41.684Z,0
2017-04-23T01:33:50.637Z,0
2017-04-23T01:34:59.586Z,0
2017-04-23T01:36:08.536Z,0
2017-04-23T01:37:17.484Z,0
2017-04-23T01:38:26.676Z,0
2017-04-23T01:39:35.619Z,0
2017-04-23T01:40:44.648Z,0
2017-04-23T01:41:53.596Z,0
2017-04-23T01:43:02.662Z,0
2017-04-23T01:44:11.917Z,0
2017-04-23T01:45:20.863Z,0
2017-04-23T01:46:29.810Z,0
2017-04-23T01:47:38.761Z,0
2017-04-23T01:48:47.732Z,0
2017-04-23T01:49:56.928Z,0
2017-04-23T01:51:05.967Z,0
2017-04-23T01:52:14.913Z,0
2017-04-23T01:53:23.862Z,0
2017-04-23T01:54:32.810Z,0
2017-04-23T01:55:42.331Z,0
2017-04-23T01:56:51.274Z,0
2017-04-23T01:58:00.227Z,0
2017-04-23T01:59:09.253Z,0
2017-04-23T02:00:18.286Z,0
2017-04-23T02:01:27.621Z,0
2017-04-23T02:02:36.895Z,0
2017-04-23T02:03:45.844Z,0
2017-04-23T02:04:54.826Z,0
2017-04-23T02:06:03.775Z,0
2017-04-23T02:07:13.033Z,0
2017-04-23T02:08:21.986Z,0
2017-04-23T02:09:30.926Z,0
2017-04-23T02:10:39.869Z,0
2017-04-23T02:11:48.812Z,0
2017-04-23T02:12:58.159Z,0
2017-04-23T02:14:07.114Z,0
2017-04-23T02:15:16.379Z,0
2017-04-23T02:16:25.407Z,0
2017-04-23T02:17:34.352Z,0
2017-04-23T02:18:43.941Z,0
2017-04-23T02:19:52.890Z,0
2017-04-23T02:21:01.834Z,0
2017-04-23T02:22:10.782Z,0
2017-04-23T02:23:19.736Z,0
2017-04-23T02:24:28.935Z,0
2017-04-23T02:25:37.878Z,0
2017-04-23T02:26:46.824Z,0
2017-04-23T02:27:55.777Z,0
2017-04-23T02:29:04.729Z,0
2017-04-23T02:30:13.924Z,0
2017-04-23T02:31:22.873Z,0
2017-04-23T02:32:31.819Z,0
2017-04-23T02:33:40.773Z,0
2017-04-23T02:34:49.809Z,0
2017-04-23T02:35:59.006Z,0
2017-04-23T02:37:07.959Z,0
2017-04-23T02:38:16.905Z,0
2017-04-23T02:39:25.856Z,0
2017-04-23T02:40:35.129Z,0
2017-04-23T02:41:44.323Z,0
2017-04-23T02:42:53.382Z,0
2017-04-23T02:44:02.333Z,0
2017-04-23T02:45:11.276Z,0
2017-04-23T02:46:20.221Z,0
2017-04-23T02:47:29.423Z,0
2017-04-23T02:48:38.373Z,0
2017-04-23T02:49:47.652Z,0
2017-04-23T02:50:56.684Z,0
2017-04-23T02:52:05.630Z,0
2017-04-23T02:53:14.823Z,0
2017-04-23T02:54:23.770Z,0
2017-04-23T02:55:32.726Z,0
2017-04-23T02:56:41.678Z,0
2017-04-23T02:57:50.634Z,0
2017-04-23T02:58:59.834Z,0
2017-04-23T03:00:08.781Z,0
2017-04-23T03:01:18.044Z,0
2017-04-23T03:02:26.992Z,0
2017-04-23T03:03:36.032Z,0
2017-04-23T03:04:45.234Z,0
2017-04-23T03:05:54.185Z,0
2017-04-23T03:07:03.133Z,0
2017-04-23T03:08:12.082Z,0
2017-04-23T03:09:21.028Z,0
2017-04-23T03:10:30.229Z,0
2017-04-23T03:11:39.610Z,0
2017-04-23T03:12:48.562Z,0
2017-04-23T03:13:57.512Z,0
2017-04-23T03:15:06.457Z,0
2017-04-23T03:16:15.650Z,0
2017-04-23T03:17:24.610Z,0
2017-04-23T03:18:33.651Z,0
2017-04-23T03:19:42.691Z,0
2017-04-23T03:20:51.640Z,0
2017-04-23T03:22:00.841Z,0
2017-04-23T03:23:09.789Z,0
2017-04-23T03:24:18.738Z,0
2017-04-23T03:25:27.688Z,0
2017-04-23T03:26:36.718Z,0
2017-04-23T03:27:45.915Z,0
2017-04-23T03:28:54.862Z,0
2017-04-23T03:30:03.810Z,0
2017-04-23T03:31:12.764Z,0
2017-04-23T03:32:21.710Z,0
2017-04-23T03:33:30.909Z,0
2017-04-23T03:34:39.858Z,0
2017-04-23T03:35:48.809Z,0
2017-04-23T03:36:57.755Z,0
2017-04-23T03:38:06.703Z,0
2017-04-23T03:39:15.904Z,0
2017-04-23T03:40:24.852Z,0
2017-04-23T03:41:33.885Z,0
2017-04-23T03:42:42.832Z,0
2017-04-23T03:43:51.873Z,0
2017-04-23T03:45:01.157Z,0
2017-04-23T03:46:10.101Z,0
2017-04-23T03:47:19.047Z,0
2017-04-23T03:48:28.002Z,0
2017-04-23T03:49:37.057Z,0
2017-04-23T03:50:46.582Z,0
2017-04-23T03:51:55.526Z,0
2017-04-23T03:53:04.476Z,0
2017-04-23T03:54:13.436Z,0
2017-04-23T03:55:22.383Z,0
2017-04-23T03:56:31.638Z,0
2017-04-23T03:57:40.674Z,0
2017-04-23T03:58:49.622Z,0
2017-04-23T03:59:58.573Z,0
2017-04-23T04:01:07.608Z,0
2017-04-23T04:02:16.890Z,0
2017-04-23T04:03:25.839Z,0
2017-04-23T04:04:34.788Z,0
2017-04-23T04:05:43.739Z,0
2017-04-23T04:06:53.009Z,0
2017-04-23T04:08:02.254Z,5
2017-04-23T04:09:11.195Z,5
2017-04-23T04:10:20.145Z,5
2017-04-23T04:11:29.097Z,5
2017-04-23T04:12:38.053Z,5
2017-04-23T04:13:47.256Z,5
2017-04-23T04:14:56.215Z,5
2017-04-23T04:16:05.165Z,5
2017-04-23T04:17:14.115Z,5
2017-04-23T04:18:23.064Z,5
2017-04-23T04:19:32.585Z,5
2017-04-23T04:20:41.860Z,5
2017-04-23T04:21:50.803Z,10
2017-04-23T04:23:00.070Z,10
2017-04-23T04:24:09.016Z,5
2017-04-23T04:25:18.588Z,5
2017-04-23T04:26:27.533Z,5
2017-04-23T04:27:36.807Z,5
2017-04-23T04:28:46.088Z,5
2017-04-23T04:29:55.047Z,10
2017-04-23T04:31:04.337Z,10
2017-04-23T04:32:13.374Z,10
2017-04-23T04:33:22.322Z,10
2017-04-23T04:34:31.269Z,10
2017-04-23T04:35:40.216Z,10
2017-04-23T04:36:49.415Z,15
2017-04-23T04:37:58.365Z,15
2017-04-23T04:39:07.308Z,15
2017-04-23T04:40:16.260Z,15
2017-04-23T04:41:25.223Z,20
2017-04-23T04:42:34.473Z,20
2017-04-23T04:43:43.415Z,20
2017-04-23T04:44:52.536Z,20
2017-04-23T04:46:01.510Z,15
2017-04-23T04:47:10.473Z,15
2017-04-23T04:48:19.666Z,15
2017-04-23T04:49:28.612Z,10
2017-04-23T04:50:37.559Z,10
2017-04-23T04:51:46.508Z,10
2017-04-23T04:52:55.454Z,15
2017-04-23T04:54:04.645Z,20
2017-04-23T04:55:13.589Z,25
2017-04-23T04:56:22.531Z,25
2017-04-23T04:57:31.564Z,25
2017-04-23T04:58:40.518Z,25
2017-04-23T04:59:49.940Z,25
2017-04-23T05:00:58.970Z,25
2017-04-23T05:02:07.922Z,25
2017-04-23T05:03:16.964Z,25
2017-04-23T05:04:25.920Z,20
2017-04-23T05:05:35.112Z,20
2017-04-23T05:06:44.059Z,20
2017-04-23T05:07:53.009Z,20
2017-04-23T05:09:01.953Z,25
2017-04-23T05:10:10.900Z,15
2017-04-23T05:11:20.092Z,15
2017-04-23T05:12:29.045Z,15
2017-04-23T05:13:38.006Z,20
2017-04-23T05:14:46.964Z,30
2017-04-23T05:15:55.909Z,25
2017-04-23T05:17:05.164Z,20
2017-04-23T05:18:14.286Z,25
2017-04-23T05:19:23.238Z,35
2017-04-23T05:20:32.196Z,30
2017-04-23T05:21:41.147Z,30
2017-04-23T05:22:50.365Z,30
2017-04-23T05:23:59.317Z,30
2017-04-23T05:25:08.279Z,40
2017-04-23T05:26:17.235Z,45
2017-04-23T05:27:26.183Z,40
2017-04-23T05:28:35.438Z,50
2017-04-23T05:29:44.389Z,45
2017-04-23T05:30:53.340Z,50
2017-04-23T05:32:02.288Z,50
2017-04-23T05:33:11.321Z,45
2017-04-23T05:34:20.528Z,50
2017-04-23T05:35:29.559Z,40
2017-04-23T05:36:38.506Z,40
2017-04-23T05:37:47.779Z,35
2017-04-23T05:38:56.732Z,40
2017-04-23T05:40:05.931Z,45
2017-04-23T05:41:14.878Z,45
2017-04-23T05:42:23.825Z,55
2017-04-23T05:43:32.777Z,60
2017-04-23T05:44:41.814Z,50
2017-04-23T05:45:51.192Z,60
2017-04-23T05:47:00.143Z,65
2017-04-23T05:48:09.181Z,75
2017-04-23T05:49:18.152Z,70
2017-04-23T05:50:27.103Z,55
2017-04-23T05:51:36.303Z,55
2017-04-23T05:52:45.245Z,60
2017-04-23T05:53:54.190Z,70
2017-04-23T05:55:03.143Z,40
2017-04-23T05:56:12.090Z,45
2017-04-23T05:57:21.379Z,25
2017-04-23T05:58:30.665Z,20
2017-04-23T05:59:39.618Z,25
2017-04-23T06:00:48.569Z,20
2017-04-23T06:01:57.515Z,20
2017-04-23T06:03:06.759Z,15
2017-04-23T06:04:15.707Z,15
2017-04-23T06:05:24.654Z,25
2017-04-23T06:06:33.600Z,35
2017-04-23T06:07:42.553Z,35
2017-04-23T06:08:51.909Z,35
2017-04-23T06:10:00.945Z,40
2017-04-23T06:11:09.888Z,45
2017-04-23T06:12:18.836Z,60
2017-04-23T06:13:28.112Z,65
2017-04-23T06:14:37.315Z,65
2017-04-23T06:15:46.348Z,65
2017-04-23T06:16:55.298Z,70
2017-04-23T06:18:04.249Z,75
2017-04-23T06:19:13.195Z,80
2017-04-23T06:20:22.482Z,75
2017-04-23T06:21:31.426Z,65
2017-04-23T06:22:40.784Z,70
2017-04-23T06:23:49.732Z,65
2017-04-23T06:24:59.090Z,70
2017-04-23T06:26:08.661Z,70
2017-04-23T06:27:17.609Z,70
2017-04-23T06:28:26.735Z,75
2017-04-23T06:29:35.691Z,75
2017-04-23T06:30:44.636Z,60
2017-04-23T06:31:53.885Z,50
2017-04-23T06:33:02.831Z,50
2017-04-23T06:34:11.779Z,60
2017-04-23T06:35:20.729Z,60
2017-04-23T06:36:29.790Z,45
2017-04-23T06:37:39.011Z,65
2017-04-23T06:38:47.965Z,80
2017-04-23T06:39:56.915Z,70
2017-04-23T06:41:06.181Z,60
2017-04-23T06:42:15.126Z,55
2017-04-23T06:43:24.323Z,60
2017-04-23T06:44:33.448Z,55
2017-04-23T06:45:42.392Z,65
2017-04-23T06:46:51.344Z,55
2017-04-23T06:48:00.293Z,40
2017-04-23T06:49:09.538Z,40
2017-04-23T06:50:18.490Z,40
2017-04-23T06:51:27.435Z,35
2017-04-23T06:52:36.466Z,50
2017-04-23T06:53:45.417Z,40
2017-04-23T06:54:54.618Z,25
2017-04-23T06:56:03.564Z,30
2017-04-23T06:57:12.510Z,25
2017-04-23T06:58:21.461Z,40
2017-04-23T06:59:30.432Z,35
2017-04-23T07:00:39.952Z,45
2017-04-23T07:01:48.898Z,75
2017-04-23T07:02:57.848Z,85
2017-04-23T07:04:06.806Z,85
2017-04-23T07:05:15.928Z,85
2017-04-23T07:06:25.137Z,95
2017-04-23T07:07:34.092Z,95
2017-04-23T07:08:43.132Z,95
2017-04-23T07:09:52.080Z,80
2017-04-23T07:11:01.353Z,100
2017-04-23T07:12:10.554Z,90
2017-04-23T07:13:19.615Z,85
2017-04-23T07:14:28.565Z,100
2017-04-23T07:15:37.513Z,115
2017-04-23T07:16:46.460Z,100
2017-04-23T07:17:55.714Z,100
2017-04-23T07:19:04.666Z,100
2017-04-23T07:20:13.944Z,100
2017-04-23T07:21:22.979Z,100
2017-04-23T07:22:31.925Z,95
2017-04-23T07:23:41.192Z,130
2017-04-23T07:24:50.152Z,110
2017-04-23T07:25:59.107Z,140
2017-04-23T07:27:08.062Z,125
2017-04-23T07:28:17.011Z,105
2017-04-23T07:29:26.216Z,120
2017-04-23T07:30:35.253Z,140
2017-04-23T07:31:44.194Z,140
2017-04-23T07:32:53.151Z,135
2017-04-23T07:34:02.101Z,125
2017-04-23T07:35:11.351Z,160
2017-04-23T07:36:20.297Z,190
2017-04-23T07:37:29.250Z,180
2017-04-23T07:38:38.197Z,190
2017-04-23T07:39:47.152Z,235
2017-04-23T07:40:56.364Z,250
2017-04-23T07:42:05.317Z,210
2017-04-23T07:43:14.360Z,245
2017-04-23T07:44:23.318Z,215
2017-04-23T07:45:32.264Z,240
2017-04-23T07:46:41.796Z,240
2017-04-23T07:47:50.758Z,250
2017-04-23T07:48:59.715Z,235
2017-04-23T07:50:08.764Z,205
2017-04-23T07:51:17.801Z,205
2017-04-23T07:52:27.002Z,215
2017-04-23T07:53:35.962Z,230
2017-04-23T07:54:44.913Z,210
2017-04-23T07:55:54.047Z,190
2017-04-23T07:57:03.047Z,165
2017-04-23T07:58:12.248Z,150
2017-04-23T07:59:21.204Z,130
2017-04-23T08:00:30.166Z,95
2017-04-23T08:01:39.120Z,90
2017-04-23T08:02:48.158Z,80
2017-04-23T08:03:57.361Z,85
2017-04-23T08:05:06.319Z,55
2017-04-23T08:06:15.352Z,55
2017-04-23T08:07:24.302Z,120
2017-04-23T08:08:33.341Z,120
2017-04-23T08:09:42.544Z,200
2017-04-23T08:10:51.582Z,245
2017-04-23T08:12:00.628Z,230
2017-04-23T08:13:09.663Z,310
2017-04-23T08:14:18.619Z,305
2017-04-23T08:15:27.822Z,255
2017-04-23T08:16:36.769Z,240
2017-04-23T08:17:46.053Z,240
2017-04-23T08:18:55.005Z,250
2017-04-23T08:20:04.050Z,270
2017-04-23T08:21:13.249Z,240
2017-04-23T08:22:22.195Z,205
2017-04-23T08:23:31.153Z,225
2017-04-23T08:24:40.116Z,200
2017-04-23T08:25:49.062Z,210
2017-04-23T08:26:58.268Z,230
2017-04-23T08:28:07.222Z,250
2017-04-23T08:29:16.173Z,235
2017-04-23T08:30:25.212Z,205
2017-04-23T08:31:34.165Z,230
2017-04-23T08:32:43.370Z,240
2017-04-23T08:33:52.412Z,185
2017-04-23T08:35:01.373Z,210
2017-04-23T08:36:10.644Z,285
2017-04-23T08:37:19.597Z,210
2017-04-23T08:38:28.854Z,210
2017-04-23T08:39:37.804Z,165
2017-04-23T08:40:46.755Z,185
2017-04-23T08:41:55.706Z,190
2017-04-23T08:43:04.659Z,210
2017-04-23T08:44:13.857Z,170
2017-04-23T08:45:22.811Z,130
2017-04-23T08:46:31.777Z,100
2017-04-23T08:47:40.730Z,135
2017-04-23T08:48:49.681Z,160
2017-04-23T08:49:58.954Z,165
2017-04-23T08:51:07.925Z,155
2017-04-23T08:52:16.881Z,190
2017-04-23T08:53:25.926Z,170
2017-04-23T08:54:34.876Z,95
2017-04-23T08:55:44.163Z,60
2017-04-23T08:56:53.109Z,55
2017-04-23T08:58:02.065Z,55
2017-04-23T08:59:11.112Z,110
2017-04-23T09:00:20.068Z,145
2017-04-23T09:01:29.321Z,210
2017-04-23T09:02:38.271Z,215
2017-04-23T09:03:47.227Z,170
2017-04-23T09:04:56.183Z,240
2017-04-23T09:06:05.132Z,245
2017-04-23T09:07:14.383Z,190
2017-04-23T09:08:23.332Z,235
2017-04-23T09:09:32.280Z,225
2017-04-23T09:10:41.246Z,240
2017-04-23T09:11:50.194Z,245
2017-04-23T09:12:59.405Z,230
2017-04-23T09:14:08.361Z,195
2017-04-23T09:15:17.313Z,255
2017-04-23T09:16:26.261Z,290
2017-04-23T09:17:35.303Z,285
2017-04-23T09:18:44.515Z,255
2017-04-23T09:19:53.554Z,230
2017-04-23T09:21:02.589Z,245
2017-04-23T09:22:11.557Z,220
2017-04-23T09:23:20.510Z,180
2017-04-23T09:24:29.705Z,195
2017-04-23T09:25:38.656Z,250
2017-04-23T09:26:47.615Z,280
2017-04-23T09:27:56.565Z,285
2017-04-23T09:29:05.840Z,240
2017-04-23T09:30:15.373Z,260
2017-04-23T09:31:24.415Z,235
2017-04-23T09:32:33.368Z,75
2017-04-23T09:33:42.334Z,45
2017-04-23T09:34:51.284Z,50
2017-04-23T09:36:00.490Z,55
2017-04-23T09:37:09.769Z,70
2017-04-23T09:38:18.716Z,100
2017-04-23T09:39:27.676Z,105
2017-04-23T09:40:36.630Z,115
2017-04-23T09:41:45.884Z,140
2017-04-23T09:42:55.181Z,150
2017-04-23T09:44:04.130Z,140
2017-04-23T09:45:13.079Z,160
2017-04-23T09:46:22.025Z,175
2017-04-23T09:47:31.229Z,215
2017-04-23T09:48:40.285Z,235
2017-04-23T09:49:49.235Z,210
2017-04-23T09:50:58.186Z,180
2017-04-23T09:52:07.135Z,165
2017-04-23T09:53:16.335Z,145
2017-04-23T09:54:25.286Z,130
2017-04-23T09:55:34.239Z,120
2017-04-23T09:56:43.190Z,135
2017-04-23T09:57:52.143Z,200
2017-04-23T09:59:01.347Z,245
2017-04-23T10:00:10.305Z,200
2017-04-23T10:01:19.345Z,235
2017-04-23T10:02:28.299Z,285
2017-04-23T10:03:37.270Z,310
2017-04-23T10:04:46.789Z,295
2017-04-23T10:05:56.067Z,250
2017-04-23T10:07:05.022Z,160
2017-04-23T10:08:13.969Z,150
2017-04-23T10:09:23.652Z,115
2017-04-23T10:10:32.861Z,170
2017-04-23T10:11:41.809Z,200
2017-04-23T10:12:50.765Z,190
2017-04-23T10:13:59.716Z,145
2017-04-23T10:15:09.007Z,105
2017-04-23T10:16:18.202Z,120
2017-04-23T10:17:27.158Z,90
2017-04-23T10:18:36.113Z,55
2017-04-23T10:19:45.070Z,40
2017-04-23T10:20:54.031Z,45
2017-04-23T10:22:03.228Z,60
2017-04-23T10:23:12.182Z,75
2017-04-23T10:24:21.171Z,115
2017-04-23T10:25:30.124Z,155
2017-04-23T10:26:39.396Z,180
2017-04-23T10:27:48.600Z,200
2017-04-23T10:28:57.875Z,215
2017-04-23T10:30:06.828Z,235
2017-04-23T10:31:15.778Z,210
2017-04-23T10:32:24.732Z,180
2017-04-23T10:33:33.931Z,180
2017-04-23T10:34:42.882Z,190
2017-04-23T10:35:51.844Z,210
2017-04-23T10:37:00.802Z,220
2017-04-23T10:38:09.748Z,240
2017-04-23T10:39:18.952Z,155
2017-04-23T10:40:27.904Z,145
2017-04-23T10:41:36.858Z,120
2017-04-23T10:42:45.814Z,135
2017-04-23T10:43:54.759Z,140
2017-04-23T10:45:04.023Z,155
2017-04-23T10:46:12.979Z,170
2017-04-23T10:47:22.017Z,190
2017-04-23T10:48:30.969Z,170
2017-04-23T10:49:39.919Z,215
2017-04-23T10:50:49.134Z,210
2017-04-23T10:51:58.086Z,225
2017-04-23T10:53:07.035Z,250
2017-04-23T10:54:15.981Z,230
2017-04-23T10:55:24.937Z,180
2017-04-23T10:56:34.135Z,130
2017-04-23T10:57:43.086Z,110
2017-04-23T10:58:52.035Z,120
2017-04-23T11:00:01.020Z,155
2017-04-23T11:01:09.972Z,165
2017-04-23T11:02:19.227Z,145
2017-04-23T11:03:28.594Z,90
2017-04-23T11:04:37.539Z,80
2017-04-23T11:05:46.501Z,125
2017-04-23T11:06:55.455Z,130
2017-04-23T11:08:04.738Z,145
2017-04-23T11:09:13.686Z,175
2017-04-23T11:10:22.636Z,125
2017-04-23T11:11:31.594Z,50
2017-04-23T11:12:40.544Z,50
2017-04-23T11:13:49.746Z,60
2017-04-23T11:14:58.700Z,60
2017-04-23T11:16:07.654Z,70
2017-04-23T11:17:17.336Z,80
2017-04-23T11:18:26.286Z,95
2017-04-23T11:19:35.487Z,110
2017-04-23T11:20:44.440Z,155
2017-04-23T11:21:53.718Z,215
2017-04-23T11:23:02.676Z,255
2017-04-23T11:24:11.633Z,255
2017-04-23T11:25:20.835Z,195
2017-04-23T11:26:29.787Z,230
2017-04-23T11:27:38.733Z,240
2017-04-23T11:28:47.678Z,185
2017-04-23T11:29:56.628Z,180
2017-04-23T11:31:05.833Z,155
2017-04-23T11:32:14.795Z,140
2017-04-23T11:33:23.751Z,130
2017-04-23T11:34:32.698Z,130
2017-04-23T11:35:41.662Z,150
2017-04-23T11:36:50.961Z,190
2017-04-23T11:37:59.909Z,275
2017-04-23T11:39:08.854Z,300
2017-04-23T11:40:17.971Z,265
2017-04-23T11:41:26.920Z,255
2017-04-23T11:42:36.135Z,280
2017-04-23T11:43:45.114Z,240
2017-04-23T11:44:54.070Z,250
2017-04-23T11:46:03.019Z,210
2017-04-23T11:47:11.967Z,235
2017-04-23T11:48:21.172Z,215
2017-04-23T11:49:30.126Z,190
2017-04-23T11:50:39.076Z,190
2017-04-23T11:51:48.036Z,210
2017-04-23T11:52:56.989Z,250
2017-04-23T11:54:06.191Z,270
2017-04-23T11:55:15.146Z,240
2017-04-23T11:56:24.095Z,245
2017-04-23T11:57:33.047Z,240
2017-04-23T11:58:42.337Z,220
2017-04-23T11:59:51.536Z,230
2017-04-23T12:01:00.487Z,230
2017-04-23T12:02:09.439Z,215
2017-04-23T12:03:18.389Z,200
2017-04-23T12:04:27.422Z,205
2017-04-23T12:05:36.636Z,165
2017-04-23T12:06:45.613Z,125
2017-04-23T12:07:54.563Z,115
2017-04-23T12:09:03.516Z,165
2017-04-23T12:10:12.469Z,130
2017-04-23T12:11:21.674Z,155
2017-04-23T12:12:30.632Z,125
2017-04-23T12:13:39.668Z,115
2017-04-23T12:14:48.940Z,100
2017-04-23T12:15:57.886Z,115
2017-04-23T12:17:07.153Z,120
2017-04-23T12:18:16.429Z,135
2017-04-23T12:19:25.381Z,135
2017-04-23T12:20:34.341Z,125
2017-04-23T12:21:43.290Z,90
2017-04-23T12:22:52.487Z,100
2017-04-23T12:24:01.439Z,95
2017-04-23T12:25:10.393Z,110
2017-04-23T12:26:19.354Z,110
2017-04-23T12:27:28.306Z,90
2017-04-23T12:28:37.950Z,90
2017-04-23T12:29:47.007Z,95
2017-04-23T12:30:56.285Z,95
2017-04-23T12:32:05.231Z,110
2017-04-23T12:33:14.182Z,120
2017-04-23T12:34:23.512Z,130
2017-04-23T12:35:32.548Z,135
2017-04-23T12:36:41.558Z,150
2017-04-23T12:37:50.586Z,175
2017-04-23T12:38:59.655Z,160
2017-04-23T12:40:09.260Z,175
2017-04-23T12:41:18.408Z,160
2017-04-23T12:42:27.432Z,135
2017-04-23T12:43:36.519Z,135
2017-04-23T12:44:45.511Z,155
2017-04-23T12:45:54.939Z,120
2017-04-23T12:47:04.004Z,115
2017-04-23T12:48:13.161Z,125
2017-04-23T12:49:22.301Z,165
2017-04-23T12:50:31.484Z,150
2017-04-23T12:51:40.910Z,115
2017-04-23T12:52:49.964Z,100
2017-04-23T12:53:59.034Z,100
2017-04-23T12:55:08.136Z,100
2017-04-23T12:56:17.265Z,100
2017-04-23T12:57:26.722Z,90
2017-04-23T12:58:35.807Z,105
2017-04-23T12:59:44.855Z,105
2017-04-23T13:00:53.940Z,105
2017-04-23T13:02:02.965Z,100
2017-04-23T13:03:12.252Z,100
2017-04-23T13:04:21.322Z,100
2017-04-23T13:05:30.433Z,100
2017-04-23T13:06:39.433Z,100
2017-04-23T13:07:48.587Z,105
2017-04-23T13:08:57.829Z,100
2017-04-23T13:10:07.036Z,90
2017-04-23T13:11:16.083Z,135
2017-04-23T13:12:25.157Z,130
2017-04-23T13:13:34.174Z,180
2017-04-23T13:14:43.441Z,195
2017-04-23T13:15:52.544Z,145
2017-04-23T13:17:01.701Z,120
2017-04-23T13:18:10.778Z,135
2017-04-23T13:19:19.839Z,150
2017-04-23T13:20:29.482Z,170
2017-04-23T13:21:38.625Z,185
2017-04-23T13:22:47.916Z,185
2017-04-23T13:23:57.008Z,180
2017-04-23T13:25:06.091Z,125
2017-04-23T13:26:15.599Z,125
2017-04-23T13:27:24.625Z,150
2017-04-23T13:28:33.695Z,145
2017-04-23T13:29:42.790Z,135
2017-04-23T13:30:51.950Z,110
2017-04-23T13:32:01.260Z,85
2017-04-23T13:33:10.415Z,125
2017-04-23T13:34:19.577Z,110
2017-04-23T13:35:28.742Z,90
2017-04-23T13:36:37.748Z,95
2017-04-23T13:37:47.041Z,120
2017-04-23T13:38:56.546Z,135
2017-04-23T13:40:05.575Z,115
2017-04-23T13:41:14.833Z,120
2017-04-23T13:42:23.867Z,135
2017-04-23T13:43:33.188Z,110
2017-04-23T13:44:42.280Z,85
2017-04-23T13:45:51.725Z,75
2017-04-23T13:47:00.741Z,75
2017-04-23T13:48:09.951Z,45
2017-04-23T13:49:19.355Z,30
2017-04-23T13:50:28.386Z,35
2017-04-23T13:51:37.366Z,50
2017-04-23T13:52:46.534Z,60
2017-04-23T13:53:55.640Z,55
2017-04-23T13:55:05.048Z,55
2017-04-23T13:56:14.221Z,75
2017-04-23T13:57:23.459Z,100
2017-04-23T13:58:32.584Z,110
2017-04-23T13:59:41.641Z,90
2017-04-23T14:00:50.927Z,80
2017-04-23T14:02:00.004Z,95
2017-04-23T14:03:09.282Z,105
2017-04-23T14:04:19.135Z,125
2017-04-23T14:05:28.136Z,155
2017-04-23T14:06:37.585Z,140
2017-04-23T14:07:46.795Z,125
2017-04-23T14:08:56.255Z,140
2017-04-23T14:10:06.253Z,100
2017-04-23T14:11:16.407Z,105
2017-04-23T14:12:26.627Z,100
2017-04-23T14:13:36.086Z,110
2017-04-23T14:14:45.818Z,115
2017-04-23T14:15:55.335Z,120
2017-04-23T14:17:04.718Z,125
2017-04-23T14:18:14.633Z,125
2017-04-23T14:19:24.511Z,135
2017-04-23T14:20:34.077Z,155
2017-04-23T14:21:43.545Z,155
2017-04-23T14:22:52.587Z,150
2017-04-23T14:24:01.912Z,170
2017-04-23T14:25:11.064Z,195
2017-04-23T14:26:20.115Z,185
2017-04-23T14:27:29.122Z,160
2017-04-23T14:28:38.157Z,135
2017-04-23T14:29:47.442Z,105
2017-04-23T14:30:56.451Z,140
2017-04-23T14:32:05.460Z,115
2017-04-23T14:33:14.462Z,60
2017-04-23T14:34:23.467Z,60
2017-04-23T14:35:32.750Z,60
2017-04-23T14:36:41.747Z,85
2017-04-23T14:37:50.772Z,60
2017-04-23T14:38:59.795Z,45
2017-04-23T14:40:08.837Z,80
2017-04-23T14:41:18.073Z,85
2017-04-23T14:42:27.043Z,85
2017-04-23T14:43:36.021Z,90
2017-04-23T14:44:45.016Z,120
2017-04-23T14:45:54.005Z,110
2017-04-23T14:47:03.244Z,105
2017-04-23T14:48:12.631Z,105
2017-04-23T14:49:21.683Z,100
2017-04-23T14:50:30.782Z,100
2017-04-23T14:51:39.825Z,100
2017-04-23T14:52:49.137Z,105
2017-04-23T14:53:58.444Z,100
2017-04-23T14:55:07.520Z,80
2017-04-23T14:56:16.509Z,95
2017-04-23T14:57:25.508Z,80
2017-04-23T14:58:34.791Z,80
2017-04-23T14:59:43.898Z,85
2017-04-23T15:00:52.873Z,70
2017-04-23T15:02:01.852Z,60
2017-04-23T15:03:10.901Z,60
2017-04-23T15:04:20.107Z,65
2017-04-23T15:05:29.063Z,65
2017-04-23T15:06:38.032Z,70
2017-04-23T15:07:47.028Z,65
2017-04-23T15:08:56.330Z,65
2017-04-23T15:10:05.647Z,65
2017-04-23T15:11:14.647Z,70
2017-04-23T15:12:23.699Z,75
2017-04-23T15:13:32.695Z,70
2017-04-23T15:14:41.674Z,75
2017-04-23T15:15:50.937Z,85
2017-04-23T15:16:59.900Z,105
2017-04-23T15:18:08.952Z,105
2017-04-23T15:19:17.996Z,100
2017-04-23T15:20:27.067Z,115
2017-04-23T15:21:36.649Z,100
2017-04-23T15:22:45.721Z,95
2017-04-23T15:23:54.700Z,75
2017-04-23T15:25:03.666Z,70
2017-04-23T15:26:12.628Z,60
2017-04-23T15:27:21.855Z,60
2017-04-23T15:28:30.806Z,75
2017-04-23T15:29:39.797Z,70
2017-04-23T15:30:48.784Z,55
2017-04-23T15:31:57.745Z,65
2017-04-23T15:33:06.988Z,80
2017-04-23T15:34:15.942Z,85
2017-04-23T15:35:24.896Z,80
2017-04-23T15:36:33.854Z,70
2017-04-23T15:37:42.812Z,65
2017-04-23T15:38:52.035Z,75
2017-04-23T15:40:01.037Z,85
2017-04-23T15:41:09.997Z,85
2017-04-23T15:42:18.959Z,85
2017-04-23T15:43:28.003Z,75
2017-04-23T15:44:37.211Z,100
2017-04-23T15:45:46.248Z,95
2017-04-23T15:46:55.194Z,85
2017-04-23T15:48:04.171Z,60
2017-04-23T15:49:13.233Z,85
2017-04-23T15:50:22.495Z,80
2017-04-23T15:51:31.486Z,55
2017-04-23T15:52:40.449Z,90
2017-04-23T15:53:49.419Z,80
2017-04-23T15:54:58.383Z,80
2017-04-23T15:56:07.652Z,70
2017-04-23T15:57:16.616Z,75
2017-04-23T15:58:25.664Z,75
2017-04-23T15:59:34.611Z,65
2017-04-23T16:00:43.653Z,65
2017-04-23T16:01:52.911Z,115
2017-04-23T16:03:01.869Z,100
2017-04-23T16:04:10.831Z,55
2017-04-23T16:05:19.781Z,45
2017-04-23T16:06:28.733Z,45
2017-04-23T16:07:37.944Z,55
2017-04-23T16:08:46.959Z,70
2017-04-23T16:09:56.258Z,80
2017-04-23T16:11:05.221Z,80
2017-04-23T16:12:14.168Z,65
2017-04-23T16:13:23.388Z,60
2017-04-23T16:14:32.341Z,70
2017-04-23T16:15:41.299Z,70
2017-04-23T16:16:50.253Z,70
2017-04-23T16:17:59.203Z,70
2017-04-23T16:19:08.401Z,55
2017-04-23T16:20:17.353Z,45